sensor_id;sensor_type;location;lat;lon;timestamp;temperature;humidity
17891;DHT22;9071;48.220;14.480;2024-02-15T00:04:36;5.20;99.90
17891;DHT22;9071;48.220;14.480;2024-02-15T00:09:39;5.30;99.90
17891;DHT22;9071;48.220;14.480;2024-02-15T00:14:42;5.30;99.90
17891;DHT22;9071;48.220;14.480;2024-02-15T00:19:44;5.40;99.90
17891;DHT22;9071;48.220;14.480;2024-02-15T00:24:48;5.50;99.90
17891;DHT22;9071;48.220;14.480;2024-02-15T00:29:51;5.50;99.90
17891;DHT22;9071;48.220;14.480;2024-02-15T00:34:53;5.50;99.90
17891;DHT22;9071;48.220;14.480;2024-02-15T00:39:56;5.50;99.90
17891;DHT22;9071;48.220;14.480;2024-02-15T00:44:59;5.60;99.90
17891;DHT22;9071;48.220;14.480;2024-02-15T00:50:01;5.70;99.90
17891;DHT22;9071;48.220;14.480;2024-02-15T00:55:05;5.70;99.90
17891;DHT22;9071;48.220;14.480;2024-02-15T01:00:09;5.80;99.90
17891;DHT22;9071;48.220;14.480;2024-02-15T01:05:11;5.90;99.90
17891;DHT22;9071;48.220;14.480;2024-02-15T01:10:17;5.90;99.90
17891;DHT22;9071;48.220;14.480;2024-02-15T01:15:19;6.00;99.90
17891;DHT22;9071;48.220;14.480;2024-02-15T01:20:22;5.90;99.90
17891;DHT22;9071;48.220;14.480;2024-02-15T01:25:25;5.90;99.90
17891;DHT22;9071;48.220;14.480;2024-02-15T01:30:28;5.90;99.90
17891;DHT22;9071;48.220;14.480;2024-02-15T01:35:31;5.90;99.90
17891;DHT22;9071;48.220;14.480;2024-02-15T01:40:34;6.00;99.90
17891;DHT22;9071;48.220;14.480;2024-02-15T01:45:36;6.00;99.90
17891;DHT22;9071;48.220;14.480;2024-02-15T01:50:39;6.00;99.90
17891;DHT22;9071;48.220;14.480;2024-02-15T01:55:42;6.10;99.90
17891;DHT22;9071;48.220;14.480;2024-02-15T02:00:45;6.10;99.90
17891;DHT22;9071;48.220;14.480;2024-02-15T02:05:47;6.20;99.90
17891;DHT22;9071;48.220;14.480;2024-02-15T02:10:51;6.20;99.90
17891;DHT22;9071;48.220;14.480;2024-02-15T02:15:53;6.20;99.90
17891;DHT22;9071;48.220;14.480;2024-02-15T02:20:57;6.20;99.90
17891;DHT22;9071;48.220;14.480;2024-02-15T02:26:01;6.20;99.90
17891;DHT22;9071;48.220;14.480;2024-02-15T02:31:03;6.20;99.90
17891;DHT22;9071;48.220;14.480;2024-02-15T02:36:05;6.20;99.90
17891;DHT22;9071;48.220;14.480;2024-02-15T02:41:11;6.10;99.90
17891;DHT22;9071;48.220;14.480;2024-02-15T02:46:14;6.00;99.90
17891;DHT22;9071;48.220;14.480;2024-02-15T02:51:16;6.00;99.90
17891;DHT22;9071;48.220;14.480;2024-02-15T02:56:20;6.00;99.90
17891;DHT22;9071;48.220;14.480;2024-02-15T03:01:22;6.00;99.90
17891;DHT22;9071;48.220;14.480;2024-02-15T03:06:27;6.00;99.90
17891;DHT22;9071;48.220;14.480;2024-02-15T03:11:30;6.00;99.90
17891;DHT22;9071;48.220;14.480;2024-02-15T03:16:33;6.00;99.90
17891;DHT22;9071;48.220;14.480;2024-02-15T03:21:35;6.00;99.90
17891;DHT22;9071;48.220;14.480;2024-02-15T03:26:38;6.00;99.90
17891;DHT22;9071;48.220;14.480;2024-02-15T03:31:41;6.00;99.90
17891;DHT22;9071;48.220;14.480;2024-02-15T03:36:43;6.00;99.90
17891;DHT22;9071;48.220;14.480;2024-02-15T03:41:46;6.00;99.90
17891;DHT22;9071;48.220;14.480;2024-02-15T03:46:48;6.10;99.90
17891;DHT22;9071;48.220;14.480;2024-02-15T03:51:52;6.10;99.90
17891;DHT22;9071;48.220;14.480;2024-02-15T03:56:57;6.10;99.90
17891;DHT22;9071;48.220;14.480;2024-02-15T04:01:59;6.10;99.90
17891;DHT22;9071;48.220;14.480;2024-02-15T04:07:03;6.10;99.90
17891;DHT22;9071;48.220;14.480;2024-02-15T04:12:07;6.10;99.90
17891;DHT22;9071;48.220;14.480;2024-02-15T04:17:09;6.10;99.90
17891;DHT22;9071;48.220;14.480;2024-02-15T04:22:11;6.10;99.90
17891;DHT22;9071;48.220;14.480;2024-02-15T04:27:15;6.10;99.90
17891;DHT22;9071;48.220;14.480;2024-02-15T04:32:21;6.10;99.90
17891;DHT22;9071;48.220;14.480;2024-02-15T04:37:23;6.10;99.90
17891;DHT22;9071;48.220;14.480;2024-02-15T04:42:30;6.10;99.90
17891;DHT22;9071;48.220;14.480;2024-02-15T04:47:34;6.10;99.90
17891;DHT22;9071;48.220;14.480;2024-02-15T04:52:36;6.10;99.90
17891;DHT22;9071;48.220;14.480;2024-02-15T04:57:40;6.10;99.90
17891;DHT22;9071;48.220;14.480;2024-02-15T05:02:42;6.00;99.90
17891;DHT22;9071;48.220;14.480;2024-02-15T05:07:45;6.00;99.90
17891;DHT22;9071;48.220;14.480;2024-02-15T05:12:51;6.00;99.90
17891;DHT22;9071;48.220;14.480;2024-02-15T05:17:54;6.10;99.90
17891;DHT22;9071;48.220;14.480;2024-02-15T05:22:56;6.10;99.90
17891;DHT22;9071;48.220;14.480;2024-02-15T05:27:59;6.10;99.90
17891;DHT22;9071;48.220;14.480;2024-02-15T05:33:02;6.10;99.90
17891;DHT22;9071;48.220;14.480;2024-02-15T05:38:04;6.10;99.90
17891;DHT22;9071;48.220;14.480;2024-02-15T05:43:08;6.00;99.90
17891;DHT22;9071;48.220;14.480;2024-02-15T05:48:10;6.00;99.90
17891;DHT22;9071;48.220;14.480;2024-02-15T05:53:13;6.10;99.90
17891;DHT22;9071;48.220;14.480;2024-02-15T05:58:16;6.20;99.90
17891;DHT22;9071;48.220;14.480;2024-02-15T06:03:18;6.20;99.90
17891;DHT22;9071;48.220;14.480;2024-02-15T06:08:22;6.10;99.90
17891;DHT22;9071;48.220;14.480;2024-02-15T06:13:26;6.10;99.90
17891;DHT22;9071;48.220;14.480;2024-02-15T06:18:29;6.00;99.90
17891;DHT22;9071;48.220;14.480;2024-02-15T06:23:33;6.00;99.90
17891;DHT22;9071;48.220;14.480;2024-02-15T06:28:37;5.90;99.90
17891;DHT22;9071;48.220;14.480;2024-02-15T06:33:57;6.00;99.90
17891;DHT22;9071;48.220;14.480;2024-02-15T06:39:16;6.00;99.90
17891;DHT22;9071;48.220;14.480;2024-02-15T06:44:37;6.10;99.90
17891;DHT22;9071;48.220;14.480;2024-02-15T06:49:41;6.10;99.90
17891;DHT22;9071;48.220;14.480;2024-02-15T06:54:44;6.20;99.90
17891;DHT22;9071;48.220;14.480;2024-02-15T06:59:48;6.20;99.90
17891;DHT22;9071;48.220;14.480;2024-02-15T07:04:51;6.20;99.90
17891;DHT22;9071;48.220;14.480;2024-02-15T07:09:53;6.30;99.90
17891;DHT22;9071;48.220;14.480;2024-02-15T07:14:56;6.30;99.90
17891;DHT22;9071;48.220;14.480;2024-02-15T07:19:58;6.40;99.90
17891;DHT22;9071;48.220;14.480;2024-02-15T07:25:00;6.50;99.90
17891;DHT22;9071;48.220;14.480;2024-02-15T07:30:06;6.70;99.90
17891;DHT22;9071;48.220;14.480;2024-02-15T07:35:09;7.50;99.90
17891;DHT22;9071;48.220;14.480;2024-02-15T07:40:11;8.20;99.90
17891;DHT22;9071;48.220;14.480;2024-02-15T07:45:15;8.90;99.90
17891;DHT22;9071;48.220;14.480;2024-02-15T07:50:18;8.90;99.90
17891;DHT22;9071;48.220;14.480;2024-02-15T07:55:23;8.60;99.90
17891;DHT22;9071;48.220;14.480;2024-02-15T08:00:26;8.40;99.90
17891;DHT22;9071;48.220;14.480;2024-02-15T08:05:28;8.80;99.90
17891;DHT22;9071;48.220;14.480;2024-02-15T08:10:30;9.40;99.90
17891;DHT22;9071;48.220;14.480;2024-02-15T08:15:34;10.60;99.90
17891;DHT22;9071;48.220;14.480;2024-02-15T08:20:36;12.00;99.90
17891;DHT22;9071;48.220;14.480;2024-02-15T08:25:41;11.00;99.90
17891;DHT22;9071;48.220;14.480;2024-02-15T08:30:44;10.40;99.90
17891;DHT22;9071;48.220;14.480;2024-02-15T08:35:47;10.00;99.90
17891;DHT22;9071;48.220;14.480;2024-02-15T08:40:49;10.00;99.90
17891;DHT22;9071;48.220;14.480;2024-02-15T08:45:53;10.00;99.90
17891;DHT22;9071;48.220;14.480;2024-02-15T08:50:55;10.30;99.90
17891;DHT22;9071;48.220;14.480;2024-02-15T08:55:57;10.50;99.90
17891;DHT22;9071;48.220;14.480;2024-02-15T09:01:01;10.60;99.90
17891;DHT22;9071;48.220;14.480;2024-02-15T09:06:04;10.80;99.90
17891;DHT22;9071;48.220;14.480;2024-02-15T09:11:08;10.70;99.90
17891;DHT22;9071;48.220;14.480;2024-02-15T09:16:14;10.70;99.90
17891;DHT22;9071;48.220;14.480;2024-02-15T09:21:16;10.80;99.90
17891;DHT22;9071;48.220;14.480;2024-02-15T09:26:18;10.80;99.90
17891;DHT22;9071;48.220;14.480;2024-02-15T09:31:22;11.00;99.90
17891;DHT22;9071;48.220;14.480;2024-02-15T09:36:25;11.10;99.90
17891;DHT22;9071;48.220;14.480;2024-02-15T09:41:29;11.10;99.90
17891;DHT22;9071;48.220;14.480;2024-02-15T09:46:35;11.30;99.90
17891;DHT22;9071;48.220;14.480;2024-02-15T09:51:40;11.50;99.90
17891;DHT22;9071;48.220;14.480;2024-02-15T09:56:43;11.80;99.90
17891;DHT22;9071;48.220;14.480;2024-02-15T10:01:48;12.00;99.90
17891;DHT22;9071;48.220;14.480;2024-02-15T10:06:51;12.20;99.90
17891;DHT22;9071;48.220;14.480;2024-02-15T10:11:54;12.30;99.90
17891;DHT22;9071;48.220;14.480;2024-02-15T10:17:06;12.50;99.90
17891;DHT22;9071;48.220;14.480;2024-02-15T10:22:10;12.80;99.90
17891;DHT22;9071;48.220;14.480;2024-02-15T10:27:23;13.10;99.90
17891;DHT22;9071;48.220;14.480;2024-02-15T10:32:34;13.30;99.90
17891;DHT22;9071;48.220;14.480;2024-02-15T10:37:40;13.10;99.90
17891;DHT22;9071;48.220;14.480;2024-02-15T10:42:43;13.10;99.90
17891;DHT22;9071;48.220;14.480;2024-02-15T10:47:47;13.30;99.90
17891;DHT22;9071;48.220;14.480;2024-02-15T10:52:54;13.00;99.90
17891;DHT22;9071;48.220;14.480;2024-02-15T10:57:59;12.90;99.90
17891;DHT22;9071;48.220;14.480;2024-02-15T11:03:07;12.90;99.90
17891;DHT22;9071;48.220;14.480;2024-02-15T11:08:14;13.30;99.90
17891;DHT22;9071;48.220;14.480;2024-02-15T11:13:17;13.60;99.90
17891;DHT22;9071;48.220;14.480;2024-02-15T11:18:43;13.90;99.90
17891;DHT22;9071;48.220;14.480;2024-02-15T11:23:46;14.20;99.90
17891;DHT22;9071;48.220;14.480;2024-02-15T11:28:48;14.30;99.90
17891;DHT22;9071;48.220;14.480;2024-02-15T11:33:52;14.30;99.90
17891;DHT22;9071;48.220;14.480;2024-02-15T11:38:54;14.20;99.90
17891;DHT22;9071;48.220;14.480;2024-02-15T11:43:56;14.20;99.90
17891;DHT22;9071;48.220;14.480;2024-02-15T11:49:00;14.40;99.90
17891;DHT22;9071;48.220;14.480;2024-02-15T11:54:06;14.60;99.90
17891;DHT22;9071;48.220;14.480;2024-02-15T11:59:09;15.10;99.90
17891;DHT22;9071;48.220;14.480;2024-02-15T12:04:20;15.30;99.90
17891;DHT22;9071;48.220;14.480;2024-02-15T12:09:40;15.40;99.90
17891;DHT22;9071;48.220;14.480;2024-02-15T12:15:00;15.10;99.90
17891;DHT22;9071;48.220;14.480;2024-02-15T12:20:21;15.10;99.90
17891;DHT22;9071;48.220;14.480;2024-02-15T12:25:25;15.20;99.90
17891;DHT22;9071;48.220;14.480;2024-02-15T12:30:33;15.50;99.90
17891;DHT22;9071;48.220;14.480;2024-02-15T12:35:38;15.70;99.90
17891;DHT22;9071;48.220;14.480;2024-02-15T12:40:40;15.60;99.90
17891;DHT22;9071;48.220;14.480;2024-02-15T12:45:43;15.60;99.90
17891;DHT22;9071;48.220;14.480;2024-02-15T12:50:46;16.00;99.90
17891;DHT22;9071;48.220;14.480;2024-02-15T12:55:53;16.20;99.90
17891;DHT22;9071;48.220;14.480;2024-02-15T13:00:56;16.10;99.90
17891;DHT22;9071;48.220;14.480;2024-02-15T13:06:00;16.10;99.90
17891;DHT22;9071;48.220;14.480;2024-02-15T13:11:03;16.40;99.90
17891;DHT22;9071;48.220;14.480;2024-02-15T13:16:05;16.20;99.90
17891;DHT22;9071;48.220;14.480;2024-02-15T13:21:09;16.00;99.90
17891;DHT22;9071;48.220;14.480;2024-02-15T13:26:12;16.20;99.90
17891;DHT22;9071;48.220;14.480;2024-02-15T13:31:14;16.40;99.90
17891;DHT22;9071;48.220;14.480;2024-02-15T13:36:17;16.60;99.90
17891;DHT22;9071;48.220;14.480;2024-02-15T13:41:20;16.70;99.90
17891;DHT22;9071;48.220;14.480;2024-02-15T13:46:22;16.70;99.90
17891;DHT22;9071;48.220;14.480;2024-02-15T13:51:26;16.60;99.90
17891;DHT22;9071;48.220;14.480;2024-02-15T13:56:28;16.50;99.90
17891;DHT22;9071;48.220;14.480;2024-02-15T14:01:31;16.30;99.90
17891;DHT22;9071;48.220;14.480;2024-02-15T14:06:36;16.30;99.90
17891;DHT22;9071;48.220;14.480;2024-02-15T14:11:40;16.20;99.90
17891;DHT22;9071;48.220;14.480;2024-02-15T14:16:42;16.20;99.90
17891;DHT22;9071;48.220;14.480;2024-02-15T14:21:45;16.00;99.90
17891;DHT22;9071;48.220;14.480;2024-02-15T14:26:48;15.80;99.90
17891;DHT22;9071;48.220;14.480;2024-02-15T14:31:53;15.70;99.90
17891;DHT22;9071;48.220;14.480;2024-02-15T14:37:14;15.80;99.90
17891;DHT22;9071;48.220;14.480;2024-02-15T14:42:17;15.80;99.90
17891;DHT22;9071;48.220;14.480;2024-02-15T14:47:19;15.70;99.90
17891;DHT22;9071;48.220;14.480;2024-02-15T14:52:24;15.50;99.90
17891;DHT22;9071;48.220;14.480;2024-02-15T14:57:27;15.50;99.90
17891;DHT22;9071;48.220;14.480;2024-02-15T15:02:29;15.20;99.90
17891;DHT22;9071;48.220;14.480;2024-02-15T15:07:32;15.00;99.90
17891;DHT22;9071;48.220;14.480;2024-02-15T15:13:06;15.00;99.90
17891;DHT22;9071;48.220;14.480;2024-02-15T15:18:10;14.70;99.90
17891;DHT22;9071;48.220;14.480;2024-02-15T15:23:13;14.50;99.90
17891;DHT22;9071;48.220;14.480;2024-02-15T15:28:16;14.30;99.90
17891;DHT22;9071;48.220;14.480;2024-02-15T15:33:19;14.10;99.90
17891;DHT22;9071;48.220;14.480;2024-02-15T15:38:22;14.20;99.90
17891;DHT22;9071;48.220;14.480;2024-02-15T15:43:24;14.10;99.90
17891;DHT22;9071;48.220;14.480;2024-02-15T15:48:27;14.10;99.90
17891;DHT22;9071;48.220;14.480;2024-02-15T15:53:30;13.90;99.90
17891;DHT22;9071;48.220;14.480;2024-02-15T15:58:32;13.60;99.90
17891;DHT22;9071;48.220;14.480;2024-02-15T16:03:34;13.30;99.90
17891;DHT22;9071;48.220;14.480;2024-02-15T16:08:38;13.00;99.90
17891;DHT22;9071;48.220;14.480;2024-02-15T16:13:40;12.80;99.90
17891;DHT22;9071;48.220;14.480;2024-02-15T16:18:43;12.70;99.90
17891;DHT22;9071;48.220;14.480;2024-02-15T16:23:46;12.50;99.90
17891;DHT22;9071;48.220;14.480;2024-02-15T16:28:49;12.00;99.90
17891;DHT22;9071;48.220;14.480;2024-02-15T16:33:51;11.50;99.90
17891;DHT22;9071;48.220;14.480;2024-02-15T16:38:55;11.10;99.90
17891;DHT22;9071;48.220;14.480;2024-02-15T16:43:57;10.90;99.90
17891;DHT22;9071;48.220;14.480;2024-02-15T16:48:59;10.60;99.90
17891;DHT22;9071;48.220;14.480;2024-02-15T16:54:03;10.30;99.90
17891;DHT22;9071;48.220;14.480;2024-02-15T16:59:05;10.00;99.90
17891;DHT22;9071;48.220;14.480;2024-02-15T17:04:07;9.80;99.90
17891;DHT22;9071;48.220;14.480;2024-02-15T17:09:11;9.60;99.90
17891;DHT22;9071;48.220;14.480;2024-02-15T17:14:13;9.50;99.90
17891;DHT22;9071;48.220;14.480;2024-02-15T17:19:15;9.40;99.90
17891;DHT22;9071;48.220;14.480;2024-02-15T17:24:19;9.40;99.90
17891;DHT22;9071;48.220;14.480;2024-02-15T17:29:21;9.10;99.90
17891;DHT22;9071;48.220;14.480;2024-02-15T17:34:23;8.90;99.90
17891;DHT22;9071;48.220;14.480;2024-02-15T17:39:27;8.70;99.90
17891;DHT22;9071;48.220;14.480;2024-02-15T17:44:29;8.60;99.90
17891;DHT22;9071;48.220;14.480;2024-02-15T17:49:32;8.40;99.90
17891;DHT22;9071;48.220;14.480;2024-02-15T17:54:35;8.30;99.90
17891;DHT22;9071;48.220;14.480;2024-02-15T17:59:38;8.10;99.90
17891;DHT22;9071;48.220;14.480;2024-02-15T18:04:40;8.10;99.90
17891;DHT22;9071;48.220;14.480;2024-02-15T18:09:43;8.00;99.90
17891;DHT22;9071;48.220;14.480;2024-02-15T18:14:47;7.80;99.90
17891;DHT22;9071;48.220;14.480;2024-02-15T18:19:51;7.60;99.90
17891;DHT22;9071;48.220;14.480;2024-02-15T18:24:54;7.50;99.90
17891;DHT22;9071;48.220;14.480;2024-02-15T18:29:56;7.40;99.90
17891;DHT22;9071;48.220;14.480;2024-02-15T18:34:59;7.30;99.90
17891;DHT22;9071;48.220;14.480;2024-02-15T18:40:03;7.30;99.90
17891;DHT22;9071;48.220;14.480;2024-02-15T18:45:08;7.20;99.90
17891;DHT22;9071;48.220;14.480;2024-02-15T18:50:10;7.10;99.90
17891;DHT22;9071;48.220;14.480;2024-02-15T18:55:13;7.00;99.90
17891;DHT22;9071;48.220;14.480;2024-02-15T19:00:16;7.10;99.90
17891;DHT22;9071;48.220;14.480;2024-02-15T19:05:20;7.00;99.90
17891;DHT22;9071;48.220;14.480;2024-02-15T19:10:24;6.80;99.90
17891;DHT22;9071;48.220;14.480;2024-02-15T19:15:26;6.70;99.90
17891;DHT22;9071;48.220;14.480;2024-02-15T19:20:29;6.50;99.90
17891;DHT22;9071;48.220;14.480;2024-02-15T19:25:32;6.40;99.90
17891;DHT22;9071;48.220;14.480;2024-02-15T19:30:34;6.30;99.90
17891;DHT22;9071;48.220;14.480;2024-02-15T19:35:37;6.20;99.90
17891;DHT22;9071;48.220;14.480;2024-02-15T19:40:40;6.10;99.90
17891;DHT22;9071;48.220;14.480;2024-02-15T19:45:42;6.00;99.90
17891;DHT22;9071;48.220;14.480;2024-02-15T19:50:44;5.90;99.90
17891;DHT22;9071;48.220;14.480;2024-02-15T19:55:48;5.80;99.90
17891;DHT22;9071;48.220;14.480;2024-02-15T20:00:50;5.70;99.90
17891;DHT22;9071;48.220;14.480;2024-02-15T20:05:52;5.70;99.90
17891;DHT22;9071;48.220;14.480;2024-02-15T20:11:00;5.60;99.90
17891;DHT22;9071;48.220;14.480;2024-02-15T20:16:02;5.50;99.90
17891;DHT22;9071;48.220;14.480;2024-02-15T20:21:05;5.40;99.90
17891;DHT22;9071;48.220;14.480;2024-02-15T20:26:12;5.30;99.90
17891;DHT22;9071;48.220;14.480;2024-02-15T20:31:15;5.30;99.90
17891;DHT22;9071;48.220;14.480;2024-02-15T20:36:17;5.20;99.90
17891;DHT22;9071;48.220;14.480;2024-02-15T20:41:22;5.10;99.90
17891;DHT22;9071;48.220;14.480;2024-02-15T20:46:27;5.10;99.90
17891;DHT22;9071;48.220;14.480;2024-02-15T20:51:30;5.10;99.90
17891;DHT22;9071;48.220;14.480;2024-02-15T20:56:34;5.00;99.90
17891;DHT22;9071;48.220;14.480;2024-02-15T21:01:37;5.10;99.90
17891;DHT22;9071;48.220;14.480;2024-02-15T21:06:39;5.10;99.90
17891;DHT22;9071;48.220;14.480;2024-02-15T21:11:43;4.90;99.90
17891;DHT22;9071;48.220;14.480;2024-02-15T21:16:45;4.80;99.90
17891;DHT22;9071;48.220;14.480;2024-02-15T21:21:48;4.80;99.90
17891;DHT22;9071;48.220;14.480;2024-02-15T21:26:52;4.70;99.90
17891;DHT22;9071;48.220;14.480;2024-02-15T21:31:54;4.70;99.90
17891;DHT22;9071;48.220;14.480;2024-02-15T21:36:56;4.70;99.90
17891;DHT22;9071;48.220;14.480;2024-02-15T21:41:59;5.00;99.90
17891;DHT22;9071;48.220;14.480;2024-02-15T21:47:02;5.30;99.90
17891;DHT22;9071;48.220;14.480;2024-02-15T21:52:05;5.50;99.90
17891;DHT22;9071;48.220;14.480;2024-02-15T21:57:10;5.50;99.90
17891;DHT22;9071;48.220;14.480;2024-02-15T22:02:13;5.50;99.90
17891;DHT22;9071;48.220;14.480;2024-02-15T22:07:15;5.60;99.90
17891;DHT22;9071;48.220;14.480;2024-02-15T22:12:22;5.50;99.90
17891;DHT22;9071;48.220;14.480;2024-02-15T22:17:24;5.40;99.90
17891;DHT22;9071;48.220;14.480;2024-02-15T22:22:26;5.20;99.90
17891;DHT22;9071;48.220;14.480;2024-02-15T22:27:29;5.40;99.90
17891;DHT22;9071;48.220;14.480;2024-02-15T22:32:31;5.40;99.90
17891;DHT22;9071;48.220;14.480;2024-02-15T22:37:33;5.50;99.90
17891;DHT22;9071;48.220;14.480;2024-02-15T22:42:37;5.50;99.90
17891;DHT22;9071;48.220;14.480;2024-02-15T22:47:39;5.60;99.90
17891;DHT22;9071;48.220;14.480;2024-02-15T22:52:42;5.60;99.90
17891;DHT22;9071;48.220;14.480;2024-02-15T22:57:46;5.50;99.90
17891;DHT22;9071;48.220;14.480;2024-02-15T23:02:49;5.30;99.90
17891;DHT22;9071;48.220;14.480;2024-02-15T23:07:51;5.20;99.90
17891;DHT22;9071;48.220;14.480;2024-02-15T23:12:55;5.10;99.90
17891;DHT22;9071;48.220;14.480;2024-02-15T23:17:57;5.20;99.90
17891;DHT22;9071;48.220;14.480;2024-02-15T23:22:59;5.10;99.90
17891;DHT22;9071;48.220;14.480;2024-02-15T23:28:03;5.20;99.90
17891;DHT22;9071;48.220;14.480;2024-02-15T23:33:05;5.20;99.90
17891;DHT22;9071;48.220;14.480;2024-02-15T23:38:08;5.20;99.90
17891;DHT22;9071;48.220;14.480;2024-02-15T23:43:28;5.30;99.90
17891;DHT22;9071;48.220;14.480;2024-02-15T23:48:30;5.50;99.90
17891;DHT22;9071;48.220;14.480;2024-02-15T23:53:32;5.50;99.90
17891;DHT22;9071;48.220;14.480;2024-02-15T23:58:36;5.90;99.90
